sensor_id;sensor_type;location;lat;lon;timestamp;pressure;altitude;pressure_sealevel;temperature;humidity
59375;BME280;45172;55.006;73.460;2022-10-01T00:02:06;102779.78;;;-1.74;nan
59375;BME280;45172;55.006;73.460;2022-10-01T00:04:34;102779.94;;;-1.73;nan
59375;BME280;45172;55.006;73.460;2022-10-01T00:07:05;102760.63;;;-1.84;nan
59375;BME280;45172;55.006;73.460;2022-10-01T00:09:35;102783.16;;;-1.67;nan
59375;BME280;45172;55.006;73.460;2022-10-01T00:12:01;102783.50;;;-1.63;nan
59375;BME280;45172;55.006;73.460;2022-10-01T00:14:28;102756.06;;;-1.77;nan
59375;BME280;45172;55.006;73.460;2022-10-01T00:16:55;102784.88;;;-1.58;nan
59375;BME280;45172;55.006;73.460;2022-10-01T00:19:21;102789.47;;;-1.56;nan
59375;BME280;45172;55.006;73.460;2022-10-01T00:21:47;102791.31;;;-1.55;nan
59375;BME280;45172;55.006;73.460;2022-10-01T00:24:18;102753.16;;;-1.81;nan
59375;BME280;45172;55.006;73.460;2022-10-01T00:26:44;102794.84;;;-1.54;nan
59375;BME280;45172;55.006;73.460;2022-10-01T00:29:19;102778.31;;;-1.63;nan
59375;BME280;45172;55.006;73.460;2022-10-01T00:31:45;102786.25;;;-1.62;nan
59375;BME280;45172;55.006;73.460;2022-10-01T00:34:12;102793.78;;;-1.56;nan
59375;BME280;45172;55.006;73.460;2022-10-01T00:36:39;102754.09;;;-1.80;nan
59375;BME280;45172;55.006;73.460;2022-10-01T00:39:17;102798.38;;;-1.54;nan
59375;BME280;45172;55.006;73.460;2022-10-01T00:41:43;102801.13;;;-1.52;nan
59375;BME280;45172;55.006;73.460;2022-10-01T00:44:33;102794.09;;;-1.53;nan
59375;BME280;45172;55.006;73.460;2022-10-01T00:47:06;102798.53;;;-1.52;nan
59375;BME280;45172;55.006;73.460;2022-10-01T00:49:36;102776.59;;;-1.63;nan
59375;BME280;45172;55.006;73.460;2022-10-01T00:52:08;102730.34;;;-1.92;nan
59375;BME280;45172;55.006;73.460;2022-10-01T00:55:03;102806.50;;;-1.50;nan
59375;BME280;45172;55.006;73.460;2022-10-01T00:57:30;102796.69;;;-1.53;nan
59375;BME280;45172;55.006;73.460;2022-10-01T01:00:00;102815.84;;;-1.44;nan
59375;BME280;45172;55.006;73.460;2022-10-01T01:02:28;102795.91;;;-1.52;nan
59375;BME280;45172;55.006;73.460;2022-10-01T01:04:54;102818.91;;;-1.39;nan
59375;BME280;45172;55.006;73.460;2022-10-01T01:07:21;102776.59;;;-1.63;nan
59375;BME280;45172;55.006;73.460;2022-10-01T01:09:48;102798.53;;;-1.52;nan
59375;BME280;45172;55.006;73.460;2022-10-01T01:15:35;102822.91;;;-1.34;nan
59375;BME280;45172;55.006;73.460;2022-10-01T01:18:20;102822.03;;;-1.34;nan
59375;BME280;45172;55.006;73.460;2022-10-01T01:20:49;102828.28;;;-1.32;nan
59375;BME280;45172;55.006;73.460;2022-10-01T01:28:36;102822.31;;;-1.31;nan
59375;BME280;45172;55.006;73.460;2022-10-01T01:31:07;102819.25;;;-1.36;nan
59375;BME280;45172;55.006;73.460;2022-10-01T01:33:35;102813.56;;;-1.41;nan
59375;BME280;45172;55.006;73.460;2022-10-01T01:36:19;102827.06;;;-1.36;nan
59375;BME280;45172;55.006;73.460;2022-10-01T01:39:09;102826.09;;;-1.45;nan
59375;BME280;45172;55.006;73.460;2022-10-01T01:41:41;102836.97;;;-1.41;nan
59375;BME280;45172;55.006;73.460;2022-10-01T01:44:13;102834.03;;;-1.44;nan
59375;BME280;45172;55.006;73.460;2022-10-01T01:46:43;102843.69;;;-1.43;nan
59375;BME280;45172;55.006;73.460;2022-10-01T01:49:10;102839.25;;;-1.44;nan
59375;BME280;45172;55.006;73.460;2022-10-01T01:51:51;102843.69;;;-1.43;nan
59375;BME280;45172;55.006;73.460;2022-10-01T01:54:20;102842.19;;;-1.41;nan
59375;BME280;45172;55.006;73.460;2022-10-01T01:56:47;102850.88;;;-1.40;nan
59375;BME280;45172;55.006;73.460;2022-10-01T01:59:25;102856.25;;;-1.39;nan
59375;BME280;45172;55.006;73.460;2022-10-01T02:01:51;102840.78;;;-1.46;nan
59375;BME280;45172;55.006;73.460;2022-10-01T02:04:36;102857.66;;;-1.33;nan
59375;BME280;45172;55.006;73.460;2022-10-01T02:10:03;102863.66;;;-1.26;nan
59375;BME280;45172;55.006;73.460;2022-10-01T02:15:27;102814.66;;;-1.39;nan
59375;BME280;45172;55.006;73.460;2022-10-01T02:20:37;102866.22;;;-0.92;nan
59375;BME280;45172;55.006;73.460;2022-10-01T02:23:11;102870.34;;;-0.85;nan
59375;BME280;45172;55.006;73.460;2022-10-01T02:25:48;102862.88;;;-0.82;nan
59375;BME280;45172;55.006;73.460;2022-10-01T02:28:21;102870.84;;;-0.72;nan
59375;BME280;45172;55.006;73.460;2022-10-01T02:30:49;102880.38;;;-0.63;nan
59375;BME280;45172;55.006;73.460;2022-10-01T02:33:20;102850.38;;;-0.68;nan
59375;BME280;45172;55.006;73.460;2022-10-01T02:35:50;102871.38;;;-0.49;nan
59375;BME280;45172;55.006;73.460;2022-10-01T02:38:21;102888.81;;;-0.39;nan
59375;BME280;45172;55.006;73.460;2022-10-01T02:40:49;102885.16;;;-0.33;nan
59375;BME280;45172;55.006;73.460;2022-10-01T02:43:21;102897.13;;;-0.26;nan
59375;BME280;45172;55.006;73.460;2022-10-01T02:45:55;102895.28;;;-0.18;nan
59375;BME280;45172;55.006;73.460;2022-10-01T02:48:23;102887.47;;;-0.09;nan
59375;BME280;45172;55.006;73.460;2022-10-01T02:50:52;102888.06;;;-0.03;nan
59375;BME280;45172;55.006;73.460;2022-10-01T02:53:24;102888.69;;;0.03;nan
59375;BME280;45172;55.006;73.460;2022-10-01T02:55:52;102890.06;;;0.17;nan
59375;BME280;45172;55.006;73.460;2022-10-01T02:58:19;102892.03;;;0.29;nan
59375;BME280;45172;55.006;73.460;2022-10-01T03:00:46;102874.41;;;0.26;nan
59375;BME280;45172;55.006;73.460;2022-10-01T03:03:11;102886.63;;;0.45;nan
59375;BME280;45172;55.006;73.460;2022-10-01T03:05:37;102886.44;;;0.52;nan
59375;BME280;45172;55.006;73.460;2022-10-01T03:08:03;102887.53;;;0.54;nan
59375;BME280;45172;55.006;73.460;2022-10-01T03:10:29;102875.25;;;0.53;nan
59375;BME280;45172;55.006;73.460;2022-10-01T03:12:55;102897.59;;;0.68;nan
59375;BME280;45172;55.006;73.460;2022-10-01T03:15:21;102883.94;;;0.71;nan
59375;BME280;45172;55.006;73.460;2022-10-01T03:17:53;102902.03;;;0.78;nan
59375;BME280;45172;55.006;73.460;2022-10-01T03:20:19;102899.72;;;0.81;nan
59375;BME280;45172;55.006;73.460;2022-10-01T03:22:46;102898.63;;;0.88;nan
59375;BME280;45172;55.006;73.460;2022-10-01T03:25:13;102896.59;;;0.94;nan
59375;BME280;45172;55.006;73.460;2022-10-01T03:27:39;102879.53;;;0.98;nan
59375;BME280;45172;55.006;73.460;2022-10-01T03:30:06;102903.53;;;1.22;nan
59375;BME280;45172;55.006;73.460;2022-10-01T03:32:32;102886.47;;;1.26;nan
59375;BME280;45172;55.006;73.460;2022-10-01T03:34:58;102902.41;;;1.57;nan
59375;BME280;45172;55.006;73.460;2022-10-01T03:37:24;102909.41;;;1.67;nan
59375;BME280;45172;55.006;73.460;2022-10-01T03:39:50;102895.97;;;1.72;nan
59375;BME280;45172;55.006;73.460;2022-10-01T03:42:16;102858.56;;;1.63;nan
59375;BME280;45172;55.006;73.460;2022-10-01T03:44:42;102907.69;;;2.05;nan
59375;BME280;45172;55.006;73.460;2022-10-01T03:47:09;102891.22;;;2.07;nan
59375;BME280;45172;55.006;73.460;2022-10-01T03:49:35;102905.06;;;2.25;nan
59375;BME280;45172;55.006;73.460;2022-10-01T03:52:03;102900.16;;;2.38;nan
59375;BME280;45172;55.006;73.460;2022-10-01T03:54:29;102903.38;;;2.55;nan
59375;BME280;45172;55.006;73.460;2022-10-01T03:56:58;102903.94;;;2.71;nan
59375;BME280;45172;55.006;73.460;2022-10-01T03:59:24;102906.38;;;2.89;nan
59375;BME280;45172;55.006;73.460;2022-10-01T04:01:52;102899.56;;;2.91;nan
59375;BME280;45172;55.006;73.460;2022-10-01T04:04:18;102909.03;;;3.10;nan
59375;BME280;45172;55.006;73.460;2022-10-01T04:06:44;102903.81;;;3.20;nan
59375;BME280;45172;55.006;73.460;2022-10-01T04:09:12;102897.41;;;3.17;nan
59375;BME280;45172;55.006;73.460;2022-10-01T04:11:38;102906.59;;;3.32;nan
59375;BME280;45172;55.006;73.460;2022-10-01T04:14:04;102910.78;;;3.40;nan
59375;BME280;45172;55.006;73.460;2022-10-01T04:16:30;102908.81;;;3.59;nan
59375;BME280;45172;55.006;73.460;2022-10-01T04:18:59;102907.63;;;3.76;nan
59375;BME280;45172;55.006;73.460;2022-10-01T04:21:25;102900.69;;;3.76;nan
59375;BME280;45172;55.006;73.460;2022-10-01T04:23:50;102918.22;;;3.88;nan
59375;BME280;45172;55.006;73.460;2022-10-01T04:26:17;102916.50;;;3.98;nan
59375;BME280;45172;55.006;73.460;2022-10-01T04:28:43;102920.56;;;4.05;nan
59375;BME280;45172;55.006;73.460;2022-10-01T04:31:12;102902.34;;;3.96;nan
59375;BME280;45172;55.006;73.460;2022-10-01T04:33:54;102893.59;;;3.86;nan
59375;BME280;45172;55.006;73.460;2022-10-01T04:36:22;102918.09;;;3.96;nan
59375;BME280;45172;55.006;73.460;2022-10-01T04:38:54;102928.97;;;4.01;nan
59375;BME280;45172;55.006;73.460;2022-10-01T04:41:20;102891.38;;;3.80;nan
59375;BME280;45172;55.006;73.460;2022-10-01T04:43:46;102903.28;;;3.87;nan
59375;BME280;45172;55.006;73.460;2022-10-01T04:46:12;102920.94;;;4.00;nan
59375;BME280;45172;55.006;73.460;2022-10-01T04:48:39;102917.84;;;3.93;nan
59375;BME280;45172;55.006;73.460;2022-10-01T04:51:05;102940.09;;;3.98;nan
59375;BME280;45172;55.006;73.460;2022-10-01T04:53:30;102925.69;;;4.04;nan
59375;BME280;45172;55.006;73.460;2022-10-01T04:55:56;102906.56;;;3.94;nan
59375;BME280;45172;55.006;73.460;2022-10-01T04:58:22;102931.59;;;4.01;nan
59375;BME280;45172;55.006;73.460;2022-10-01T05:00:48;102907.72;;;3.98;nan
59375;BME280;45172;55.006;73.460;2022-10-01T05:03:16;102929.34;;;4.06;nan
59375;BME280;45172;55.006;73.460;2022-10-01T05:05:42;102918.47;;;4.01;nan
59375;BME280;45172;55.006;73.460;2022-10-01T05:08:08;102912.81;;;4.07;nan
59375;BME280;45172;55.006;73.460;2022-10-01T05:54:40;102920.53;;;5.26;nan
59375;BME280;45172;55.006;73.460;2022-10-01T05:57:10;102926.97;;;5.29;nan
59375;BME280;45172;55.006;73.460;2022-10-01T05:59:42;102913.63;;;5.16;nan
59375;BME280;45172;55.006;73.460;2022-10-01T06:02:09;102900.91;;;5.20;nan
59375;BME280;45172;55.006;73.460;2022-10-01T06:04:35;102907.13;;;5.45;nan
59375;BME280;45172;55.006;73.460;2022-10-01T06:07:02;102910.97;;;5.72;nan
59375;BME280;45172;55.006;73.460;2022-10-01T06:09:31;102912.84;;;5.85;nan
59375;BME280;45172;55.006;73.460;2022-10-01T06:11:57;102908.69;;;5.77;nan
59375;BME280;45172;55.006;73.460;2022-10-01T06:14:23;102908.84;;;5.90;nan
59375;BME280;45172;55.006;73.460;2022-10-01T06:16:52;102910.56;;;5.78;nan
59375;BME280;45172;55.006;73.460;2022-10-01T06:19:28;102904.34;;;5.66;nan
59375;BME280;45172;55.006;73.460;2022-10-01T06:21:54;102900.44;;;5.60;nan
59375;BME280;45172;55.006;73.460;2022-10-01T06:24:25;102900.69;;;5.64;nan
59375;BME280;45172;55.006;73.460;2022-10-01T06:26:51;102901.50;;;5.74;nan
59375;BME280;45172;55.006;73.460;2022-10-01T06:29:17;102895.22;;;5.84;nan
59375;BME280;45172;55.006;73.460;2022-10-01T06:31:43;102901.94;;;5.81;nan
59375;BME280;45172;55.006;73.460;2022-10-01T06:34:19;102903.00;;;5.83;nan
59375;BME280;45172;55.006;73.460;2022-10-01T06:36:45;102880.34;;;5.73;nan
59375;BME280;45172;55.006;73.460;2022-10-01T06:47:59;102902.31;;;5.05;nan
59375;BME280;45172;55.006;73.460;2022-10-01T06:50:29;102900.22;;;5.01;nan
59375;BME280;45172;55.006;73.460;2022-10-01T06:52:56;102906.94;;;4.97;nan
59375;BME280;45172;55.006;73.460;2022-10-01T06:55:27;102886.00;;;4.87;nan
59375;BME280;45172;55.006;73.460;2022-10-01T06:57:55;102895.38;;;5.17;nan
59375;BME280;45172;55.006;73.460;2022-10-01T07:00:23;102897.72;;;5.02;nan
59375;BME280;45172;55.006;73.460;2022-10-01T07:02:50;102896.75;;;5.12;nan
59375;BME280;45172;55.006;73.460;2022-10-01T07:05:16;102902.16;;;5.26;nan
59375;BME280;45172;55.006;73.460;2022-10-01T07:07:42;102893.06;;;5.32;nan
59375;BME280;45172;55.006;73.460;2022-10-01T07:10:14;102876.78;;;5.26;nan
59375;BME280;45172;55.006;73.460;2022-10-01T07:12:41;102896.72;;;5.34;nan
59375;BME280;45172;55.006;73.460;2022-10-01T07:15:20;102894.75;;;5.32;nan
59375;BME280;45172;55.006;73.460;2022-10-01T07:17:51;102875.06;;;5.27;nan
59375;BME280;45172;55.006;73.460;2022-10-01T07:20:27;102882.19;;;5.28;nan
59375;BME280;45172;55.006;73.460;2022-10-01T07:22:58;102890.28;;;5.31;nan
59375;BME280;45172;55.006;73.460;2022-10-01T07:25:25;102885.97;;;5.31;nan
59375;BME280;45172;55.006;73.460;2022-10-01T07:27:59;102887.59;;;5.53;nan
59375;BME280;45172;55.006;73.460;2022-10-01T07:30:30;102875.31;;;5.30;nan
59375;BME280;45172;55.006;73.460;2022-10-01T07:32:56;102867.50;;;5.19;nan
59375;BME280;45172;55.006;73.460;2022-10-01T07:35:23;102886.72;;;5.30;nan
59375;BME280;45172;55.006;73.460;2022-10-01T07:37:50;102886.63;;;5.29;nan
59375;BME280;45172;55.006;73.460;2022-10-01T07:40:17;102886.38;;;5.26;nan
59375;BME280;45172;55.006;73.460;2022-10-01T07:42:52;102881.06;;;5.36;nan
59375;BME280;45172;55.006;73.460;2022-10-01T07:45:20;102882.06;;;5.26;nan
59375;BME280;45172;55.006;73.460;2022-10-01T07:48:00;102881.56;;;5.20;nan
59375;BME280;45172;55.006;73.460;2022-10-01T07:50:28;102880.91;;;5.23;nan
59375;BME280;45172;55.006;73.460;2022-10-01T07:52:58;102886.38;;;5.26;nan
59375;BME280;45172;55.006;73.460;2022-10-01T07:55:26;102882.06;;;5.26;nan
59375;BME280;45172;55.006;73.460;2022-10-01T07:57:58;102887.97;;;5.24;nan
59375;BME280;45172;55.006;73.460;2022-10-01T08:00:29;102880.78;;;5.21;nan
59375;BME280;45172;55.006;73.460;2022-10-01T08:02:56;102870.03;;;5.18;nan
59375;BME280;45172;55.006;73.460;2022-10-01T08:05:25;102879.50;;;5.50;nan
59375;BME280;45172;55.006;73.460;2022-10-01T08:07:52;102876.84;;;5.38;nan
59375;BME280;45172;55.006;73.460;2022-10-01T08:10:19;102878.31;;;5.34;nan
59375;BME280;45172;55.006;73.460;2022-10-01T08:12:45;102881.84;;;5.35;nan
59375;BME280;45172;55.006;73.460;2022-10-01T08:15:18;102879.34;;;5.37;nan
59375;BME280;45172;55.006;73.460;2022-10-01T08:17:45;102856.78;;;5.28;nan
59375;BME280;45172;55.006;73.460;2022-10-01T08:20:12;102847.09;;;5.27;nan
59375;BME280;45172;55.006;73.460;2022-10-01T08:22:40;102873.22;;;5.60;nan
59375;BME280;45172;55.006;73.460;2022-10-01T08:25:06;102870.69;;;5.61;nan
59375;BME280;45172;55.006;73.460;2022-10-01T08:27:37;102837.53;;;5.40;nan
59375;BME280;45172;55.006;73.460;2022-10-01T08:30:04;102861.25;;;5.64;nan
59375;BME280;45172;55.006;73.460;2022-10-01T08:32:39;102866.41;;;5.98;nan
59375;BME280;45172;55.006;73.460;2022-10-01T08:35:05;102842.50;;;5.71;nan
59375;BME280;45172;55.006;73.460;2022-10-01T08:37:32;102865.50;;;5.85;nan
59375;BME280;45172;55.006;73.460;2022-10-01T08:39:58;102857.94;;;5.90;nan
59375;BME280;45172;55.006;73.460;2022-10-01T08:42:39;102854.03;;;5.85;nan
59375;BME280;45172;55.006;73.460;2022-10-01T08:45:33;102856.56;;;5.95;nan
59375;BME280;45172;55.006;73.460;2022-10-01T08:53:39;102841.34;;;5.91;nan
59375;BME280;45172;55.006;73.460;2022-10-01T08:56:42;102850.41;;;5.95;nan
59375;BME280;45172;55.006;73.460;2022-10-01T09:01:59;102845.84;;;6.04;nan
59375;BME280;45172;55.006;73.460;2022-10-01T09:04:26;102846.19;;;6.09;nan
59375;BME280;45172;55.006;73.460;2022-10-01T09:10:07;102836.34;;;6.06;nan
59375;BME280;45172;55.006;73.460;2022-10-01T09:12:47;102832.88;;;5.95;nan
59375;BME280;45172;55.006;73.460;2022-10-01T09:15:29;102847.44;;;5.90;nan
59375;BME280;45172;55.006;73.460;2022-10-01T09:18:31;102845.13;;;5.83;nan
59375;BME280;45172;55.006;73.460;2022-10-01T09:21:15;102838.03;;;5.82;nan
59375;BME280;45172;55.006;73.460;2022-10-01T09:24:02;102842.59;;;5.84;nan
59375;BME280;45172;55.006;73.460;2022-10-01T09:26:30;102799.63;;;5.72;nan
59375;BME280;45172;55.006;73.460;2022-10-01T09:28:59;102843.19;;;5.92;nan
59375;BME280;45172;55.006;73.460;2022-10-01T09:31:32;102826.94;;;5.98;nan
59375;BME280;45172;55.006;73.460;2022-10-01T09:34:10;102837.84;;;6.02;nan
59375;BME280;45172;55.006;73.460;2022-10-01T09:41:43;102843.44;;;6.07;nan
59375;BME280;45172;55.006;73.460;2022-10-01T09:44:23;102830.06;;;6.04;nan
59375;BME280;45172;55.006;73.460;2022-10-01T09:46:52;102830.59;;;6.24;nan
59375;BME280;45172;55.006;73.460;2022-10-01T09:49:28;102837.16;;;6.05;nan
59375;BME280;45172;55.006;73.460;2022-10-01T09:52:14;102837.34;;;6.08;nan
59375;BME280;45172;55.006;73.460;2022-10-01T09:54:59;102833.94;;;5.85;nan
59375;BME280;45172;55.006;73.460;2022-10-01T09:58:35;102849.47;;;5.82;nan
59375;BME280;45172;55.006;73.460;2022-10-01T10:00:44;102837.91;;;5.80;nan
59375;BME280;45172;55.006;73.460;2022-10-01T10:03:20;102845.13;;;5.83;nan
59375;BME280;45172;55.006;73.460;2022-10-01T10:05:47;102816.06;;;5.69;nan
59375;BME280;45172;55.006;73.460;2022-10-01T10:10:51;102844.22;;;6.06;nan
59375;BME280;45172;55.006;73.460;2022-10-01T10:13:26;102843.66;;;5.86;nan
59375;BME280;45172;55.006;73.460;2022-10-01T10:15:57;102842.72;;;5.86;nan
59375;BME280;45172;55.006;73.460;2022-10-01T10:18:30;102846.63;;;5.79;nan
59375;BME280;45172;55.006;73.460;2022-10-01T10:21:02;102828.63;;;5.73;nan
59375;BME280;45172;55.006;73.460;2022-10-01T10:23:32;102843.97;;;5.79;nan
59375;BME280;45172;55.006;73.460;2022-10-01T10:26:04;102839.63;;;5.80;nan
59375;BME280;45172;55.006;73.460;2022-10-01T10:28:40;102829.56;;;5.86;nan
59375;BME280;45172;55.006;73.460;2022-10-01T10:31:19;102829.00;;;5.90;nan
59375;BME280;45172;55.006;73.460;2022-10-01T10:34:28;102836.78;;;5.88;nan
59375;BME280;45172;55.006;73.460;2022-10-01T10:36:45;102825.78;;;5.82;nan
59375;BME280;45172;55.006;73.460;2022-10-01T10:39:26;102832.06;;;5.84;nan
59375;BME280;45172;55.006;73.460;2022-10-01T10:41:56;102833.34;;;5.78;nan
59375;BME280;45172;55.006;73.460;2022-10-01T10:44:29;102830.38;;;5.85;nan
59375;BME280;45172;55.006;73.460;2022-10-01T10:47:13;102825.22;;;5.86;nan
59375;BME280;45172;55.006;73.460;2022-10-01T10:49:44;102831.75;;;6.15;nan
59375;BME280;45172;55.006;73.460;2022-10-01T10:52:31;102830.38;;;6.21;nan
59375;BME280;45172;55.006;73.460;2022-10-01T10:54:59;102813.25;;;6.02;nan
59375;BME280;45172;55.006;73.460;2022-10-01T10:57:27;102831.06;;;6.06;nan
59375;BME280;45172;55.006;73.460;2022-10-01T11:00:17;102826.94;;;5.98;nan
59375;BME280;45172;55.006;73.460;2022-10-01T11:02:54;102825.56;;;5.91;nan
59375;BME280;45172;55.006;73.460;2022-10-01T11:05:24;102813.91;;;5.75;nan
59375;BME280;45172;55.006;73.460;2022-10-01T11:07:54;102826.13;;;5.75;nan
59375;BME280;45172;55.006;73.460;2022-10-01T11:27:31;102824.97;;;5.47;nan
59375;BME280;45172;55.006;73.460;2022-10-01T11:30:32;102841.28;;;5.31;nan
59375;BME280;45172;55.006;73.460;2022-10-01T11:33:25;102833.41;;;5.31;nan
59375;BME280;45172;55.006;73.460;2022-10-01T11:52:45;102810.25;;;5.85;52.08
59375;BME280;45172;55.006;73.460;2022-10-01T11:55:20;102761.00;;;5.01;53.71
59375;BME280;45172;55.006;73.460;2022-10-01T12:04:35;102817.34;;;4.82;57.23
59375;BME280;45172;55.006;73.460;2022-10-01T12:07:24;102802.75;;;4.63;57.73
59375;BME280;45172;55.006;73.460;2022-10-01T12:16:08;102816.69;;;4.40;62.07
59375;BME280;45172;55.006;73.460;2022-10-01T12:21:07;102791.66;;;4.01;63.42
59375;BME280;45172;55.006;73.460;2022-10-01T12:24:05;102814.34;;;4.00;64.80
59375;BME280;45172;55.006;73.460;2022-10-01T12:27:07;102815.03;;;3.87;65.49
59375;BME280;45172;55.006;73.460;2022-10-01T12:29:59;102809.44;;;3.72;66.05
59375;BME280;45172;55.006;73.460;2022-10-01T12:35:43;102806.72;;;3.50;68.02
59375;BME280;45172;55.006;73.460;2022-10-01T12:44:00;102811.47;;;3.12;69.80
59375;BME280;45172;55.006;73.460;2022-10-01T12:46:37;102808.84;;;3.02;69.50
59375;BME280;45172;55.006;73.460;2022-10-01T12:51:52;102812.63;;;2.85;70.39
59375;BME280;45172;55.006;73.460;2022-10-01T13:00:20;102812.97;;;2.48;71.76
59375;BME280;45172;55.006;73.460;2022-10-01T13:03:13;102810.97;;;2.35;73.09
59375;BME280;45172;55.006;73.460;2022-10-01T13:08:35;102812.22;;;2.19;72.99
59375;BME280;45172;55.006;73.460;2022-10-01T13:12:04;102808.19;;;2.04;73.02
59375;BME280;45172;55.006;73.460;2022-10-01T13:14:13;102815.22;;;1.95;72.81
59375;BME280;45172;55.006;73.460;2022-10-01T13:16:52;102771.47;;;1.54;73.45
59375;BME280;45172;55.006;73.460;2022-10-01T13:22:12;102820.00;;;1.60;74.06
59375;BME280;45172;55.006;73.460;2022-10-01T13:24:57;102821.47;;;1.48;73.84
59375;BME280;45172;55.006;73.460;2022-10-01T13:27:38;102821.53;;;1.39;74.45
59375;BME280;45172;55.006;73.460;2022-10-01T13:30:16;102805.09;;;1.21;74.77
59375;BME280;45172;55.006;73.460;2022-10-01T13:32:53;102805.28;;;1.14;75.32
59375;BME280;45172;55.006;73.460;2022-10-01T13:37:54;102823.91;;;1.08;75.89
59375;BME280;45172;55.006;73.460;2022-10-01T13:43:19;102804.84;;;0.81;76.40
59375;BME280;45172;55.006;73.460;2022-10-01T13:45:48;102818.19;;;0.84;76.29
59375;BME280;45172;55.006;73.460;2022-10-01T13:48:29;102813.38;;;0.70;76.84
59375;BME280;45172;55.006;73.460;2022-10-01T13:51:05;102825.31;;;0.67;76.64
59375;BME280;45172;55.006;73.460;2022-10-01T13:53:46;102820.28;;;0.60;77.06
59375;BME280;45172;55.006;73.460;2022-10-01T13:56:35;102830.28;;;0.56;77.80
59375;BME280;45172;55.006;73.460;2022-10-01T13:59:03;102829.06;;;0.52;77.27
59375;BME280;45172;55.006;73.460;2022-10-01T14:01:43;102784.97;;;0.27;77.69
59375;BME280;45172;55.006;73.460;2022-10-01T14:04:36;102830.34;;;0.47;78.27
59375;BME280;45172;55.006;73.460;2022-10-01T14:07:14;102821.28;;;0.43;78.71
59375;BME280;45172;55.006;73.460;2022-10-01T14:09:46;102836.44;;;0.47;78.71
59375;BME280;45172;55.006;73.460;2022-10-01T14:15:18;102834.78;;;0.48;79.54
59375;BME280;45172;55.006;73.460;2022-10-01T14:18:15;102836.44;;;0.47;80.15
59375;BME280;45172;55.006;73.460;2022-10-01T14:21:05;102840.91;;;0.48;80.64
59375;BME280;45172;55.006;73.460;2022-10-01T14:36:58;102834.25;;;0.61;81.04
59375;BME280;45172;55.006;73.460;2022-10-01T14:39:28;102833.50;;;0.62;81.64
59375;BME280;45172;55.006;73.460;2022-10-01T14:41:56;102825.66;;;0.62;81.81
59375;BME280;45172;55.006;73.460;2022-10-01T14:44:27;102830.59;;;0.59;81.98
59375;BME280;45172;55.006;73.460;2022-10-01T14:46:57;102829.19;;;0.62;82.19
59375;BME280;45172;55.006;73.460;2022-10-01T14:49:30;102831.94;;;0.64;82.13
59375;BME280;45172;55.006;73.460;2022-10-01T14:52:06;102829.03;;;0.61;82.84
59375;BME280;45172;55.006;73.460;2022-10-01T14:54:42;102829.50;;;0.57;82.56
59375;BME280;45172;55.006;73.460;2022-10-01T14:57:13;102831.22;;;0.56;82.58
59375;BME280;45172;55.006;73.460;2022-10-01T14:59:47;102825.06;;;0.56;83.01
59375;BME280;45172;55.006;73.460;2022-10-01T15:02:21;102827.69;;;0.56;83.39
59375;BME280;45172;55.006;73.460;2022-10-01T15:04:55;102822.50;;;0.47;83.74
59375;BME280;45172;55.006;73.460;2022-10-01T15:07:23;102837.66;;;0.51;83.41
59375;BME280;45172;55.006;73.460;2022-10-01T15:10:07;102840.91;;;0.48;83.90
59375;BME280;45172;55.006;73.460;2022-10-01T15:12:38;102821.75;;;0.39;84.13
59375;BME280;45172;55.006;73.460;2022-10-01T15:15:23;102838.16;;;0.47;84.12
59375;BME280;45172;55.006;73.460;2022-10-01T15:17:50;102834.78;;;0.48;83.96
59375;BME280;45172;55.006;73.460;2022-10-01T15:20:22;102818.38;;;0.40;84.33
59375;BME280;45172;55.006;73.460;2022-10-01T15:22:53;102838.91;;;0.46;84.67
59375;BME280;45172;55.006;73.460;2022-10-01T15:25:25;102837.22;;;0.46;85.00
59375;BME280;45172;55.006;73.460;2022-10-01T15:27:52;102846.72;;;0.46;84.61
59375;BME280;45172;55.006;73.460;2022-10-01T15:30:19;102834.19;;;0.42;84.96
59375;BME280;45172;55.006;73.460;2022-10-01T15:32:56;102839.69;;;0.45;84.72
59375;BME280;45172;55.006;73.460;2022-10-01T15:35:22;102841.22;;;0.43;85.24
59375;BME280;45172;55.006;73.460;2022-10-01T15:37:49;102826.69;;;0.36;85.60
59375;BME280;45172;55.006;73.460;2022-10-01T15:43:22;102841.69;;;0.38;85.33
59375;BME280;45172;55.006;73.460;2022-10-01T15:48:31;102840.59;;;0.45;85.52
59375;BME280;45172;55.006;73.460;2022-10-01T15:51:11;102838.59;;;0.51;85.63
59375;BME280;45172;55.006;73.460;2022-10-01T15:53:39;102831.84;;;0.53;85.60
59375;BME280;45172;55.006;73.460;2022-10-01T15:56:17;102825.25;;;0.48;85.65
59375;BME280;45172;55.006;73.460;2022-10-01T15:59:02;102833.94;;;0.58;86.03
59375;BME280;45172;55.006;73.460;2022-10-01T16:01:39;102834.88;;;0.58;85.61
59375;BME280;45172;55.006;73.460;2022-10-01T16:04:15;102817.56;;;0.50;85.41
59375;BME280;45172;55.006;73.460;2022-10-01T16:06:46;102837.66;;;0.60;84.79
59375;BME280;45172;55.006;73.460;2022-10-01T16:09:21;102828.00;;;0.59;85.03
59375;BME280;45172;55.006;73.460;2022-10-01T16:14:42;102826.44;;;0.61;85.26
59375;BME280;45172;55.006;73.460;2022-10-01T16:19:52;102831.31;;;0.66;85.36
59375;BME280;45172;55.006;73.460;2022-10-01T16:22:34;102820.16;;;0.59;85.94
59375;BME280;45172;55.006;73.460;2022-10-01T16:27:50;102829.31;;;0.64;85.74
59375;BME280;45172;55.006;73.460;2022-10-01T16:30:24;102830.84;;;0.71;85.56
59375;BME280;45172;55.006;73.460;2022-10-01T16:32:56;102818.88;;;0.64;85.97
59375;BME280;45172;55.006;73.460;2022-10-01T16:35:30;102831.91;;;0.73;85.76
59375;BME280;45172;55.006;73.460;2022-10-01T16:37:58;102832.84;;;0.73;85.79
59375;BME280;45172;55.006;73.460;2022-10-01T16:40:44;102790.28;;;0.46;85.91
59375;BME280;45172;55.006;73.460;2022-10-01T16:43:19;102825.31;;;0.67;85.99
59375;BME280;45172;55.006;73.460;2022-10-01T16:45:49;102825.47;;;0.69;86.15
59375;BME280;45172;55.006;73.460;2022-10-01T16:48:19;102825.00;;;0.73;86.53